Southern Ontario METAR Reports

CYSN - St.Catharines
Updated: 06/13/2021 7:00am
Mostly cloudy
Mostly cloudy
 Wind from calm
Wind: Calm
Temperature: 19°C
Dew Point: 16°C
Humidity: 83%
Barometer: 1011.2 hPa
Clouds: Mostly cloudy
Visibility: 24 km
Cloud details: Mostly cloudy 1829 m
Mostly cloudy 3658 m
2021/06/13 11:00 CYSN 131100Z 00000KT 15SM BKN060 BKN120 19/16 A2986 RMK SC5AC1 SLP113 DENSITY ALT 900FT
CYHM - Hamilton
Updated: 06/13/2021 7:00am
Mostly cloudy
Mostly cloudy
 Wind from N
Wind: N 6 km/h
Temperature: 18°C
Dew Point: 13°C
Humidity: 73%
Barometer: 1011.5 hPa
Clouds: Mostly cloudy
Visibility: 24 km
Cloud details: Mostly cloudy 1280 m
Mostly cloudy 2926 m
2021/06/13 11:00 CYHM 131100Z 35003KT 15SM BKN042 BKN096 18/13 A2987 RMK SC5AC1 SLP116 DENSITY ALT 1500FT
 
CYYZ - Toronto
Updated: 06/13/2021 7:00am
Mostly cloudy
Mostly cloudy
 Wind from SSE
Wind: SSE 7 km/h
Temperature: 19°C
Dew Point: 12°C
Humidity: 64%
Barometer: 1011.2 hPa
Clouds: Mostly cloudy
Visibility: 24 km
Cloud details: Mostly cloudy 1280 m
2021/06/13 11:00 CYYZ 131100Z 15004KT 15SM BKN042 19/12 A2986 RMK SC7 SLP113 DENSITY ALT 1300FT
CYKF - Waterloo
Updated: 06/13/2021 7:00am
Mostly cloudy
Mostly cloudy
 Wind from calm
Wind: Calm
Temperature: 17°C
Dew Point: 15°C
Humidity: 88%
Barometer: 1011.9 hPa
Clouds: Mostly cloudy
Visibility: 14 km
Cloud details: Few Clouds 1433 m
Mostly cloudy 2774 m
2021/06/13 11:00 CYKF 131100Z AUTO 00000KT 9SM FEW047 BKN091 17/15 A2988 RMK SLP116 DENSITY ALT 1600FT
 
CYXU - London
Updated: 06/13/2021 7:00am
Mostly cloudy
Mostly cloudy
 Wind from ESE
Wind: ESE 6 km/h
Temperature: 19°C
Dew Point: 17°C
Humidity: 88%
Barometer: 1011.9 hPa
Clouds: Mostly cloudy
Visibility: 19 km
Cloud details: Mostly cloudy 1036 m
Mostly cloudy 1494 m
2021/06/13 11:00 CYXU 131100Z 11003KT 12SM BKN034 BKN049 19/17 A2988 RMK SC5SC2 SLP116 DENSITY ALT 1600FT
CYQG - Windsor
Updated: 06/13/2021 7:47am
Mostly cloudy
Mostly cloudy
 Wind from W
Wind: W 4 km/h
Temperature: 22°C
Dew Point: 19°C
Humidity: 83%
Barometer: 1012.2 hPa
Clouds: Mostly cloudy
Visibility: 14 km
Cloud details: Partly cloudy 427 m
Mostly cloudy 823 m
2021/06/13 11:47 CYQG 131147Z AUTO 26002KT 9SM SCT014 BKN027 22/19 A2989 RMK SLP120 DENSITY ALT 1600FT
 
CYZR - Sarnia
Updated: 06/13/2021 7:00am
Few Clouds
Few Clouds
 Wind from N
Wind: N 6 km/h
Temperature: 19°C
Dew Point: 17°C
Humidity: 88%
Barometer: 1011.5 hPa
Clouds: Few Clouds
Visibility: 11 km
Cloud details: Few Clouds 488 m
2021/06/13 11:00 CYZR 131100Z AUTO 35003KT 7SM FEW016 19/17 A2987 RMK SLP114 DENSITY ALT 1300FT
CYVV - Wiarton
Updated: 06/13/2021 7:00am
Mostly cloudy
Mostly cloudy
 Wind from varies
Wind: varies 6 km/h
Temperature: 16°C
Dew Point: 12°C
Humidity: 77%
Barometer: 1011.2 hPa
Clouds: Mostly cloudy
Visibility: 24 km
Cloud details: Mostly cloudy 1067 m
2021/06/13 11:00 CYVV 131100Z VRB03KT 15SM BKN035 16/12 A2986 RMK SC7 SLP112 DENSITY ALT 1100FT
 
CYPQ - Peterborough
Updated: 06/13/2021 7:00am
Overcast
Overcast
 Wind from varies
Wind: varies 4 km/h
Temperature: 16°C
Dew Point: 14°C
Humidity: 88%
Barometer: 1011.5 hPa
Clouds: Overcast
Visibility: 14 km
Cloud details: Mostly cloudy 1676 m
Mostly cloudy 2073 m
Overcast 3658 m
2021/06/13 11:00 CYPQ 131100Z AUTO VRB02KT 9SM BKN055 BKN068 OVC120 16/14 A2987 RMK SLP117 DENSITY ALT 1000FT
CYTR - Trenton
Updated: 06/13/2021 7:00am
Few Clouds
Few Clouds
 Wind from calm
Wind: Calm
Temperature: 15°C
Dew Point: 12°C
Humidity: 82%
Barometer: 1011.5 hPa
Clouds: Few Clouds
Visibility: 24 km
Cloud details: Few Clouds 3048 m
Few Clouds 6096 m
2021/06/13 11:00 CYTR 131100Z 00000KT 15SM FEW100 FEW200 15/12 A2987 RMK AC2CI1 SLP116